sensor_id;sensor_type;location;lat;lon;timestamp;pressure;altitude;pressure_sealevel;temperature;humidity
60479;BME280;46321;48.398;11.754;2023-02-28T00:00:46;97139.72;;;-2.84;63.68
60479;BME280;46321;48.398;11.754;2023-02-28T00:03:11;97138.97;;;-2.87;63.75
60479;BME280;46321;48.398;11.754;2023-02-28T00:05:36;97139.13;;;-2.90;64.20
60479;BME280;46321;48.398;11.754;2023-02-28T00:08:02;97134.84;;;-2.91;63.63
60479;BME280;46321;48.398;11.754;2023-02-28T00:10:31;97137.22;;;-2.86;63.73
60479;BME280;46321;48.398;11.754;2023-02-28T00:13:01;97134.25;;;-2.78;63.57
60479;BME280;46321;48.398;11.754;2023-02-28T00:15:27;97134.25;;;-2.96;63.67
60479;BME280;46321;48.398;11.754;2023-02-28T00:17:53;97128.22;;;-2.96;63.60
60479;BME280;46321;48.398;11.754;2023-02-28T00:20:19;97137.22;;;-2.86;63.33
60479;BME280;46321;48.398;11.754;2023-02-28T00:22:46;97124.88;;;-2.99;63.70
60479;BME280;46321;48.398;11.754;2023-02-28T00:25:14;97119.66;;;-3.16;64.11
60479;BME280;46321;48.398;11.754;2023-02-28T00:27:41;97119.59;;;-2.97;63.78
60479;BME280;46321;48.398;11.754;2023-02-28T00:30:08;97113.13;;;-3.06;63.79
60479;BME280;46321;48.398;11.754;2023-02-28T00:32:34;97115.06;;;-3.11;63.70
60479;BME280;46321;48.398;11.754;2023-02-28T00:35:00;97120.88;;;-3.06;63.62
60479;BME280;46321;48.398;11.754;2023-02-28T00:37:26;97122.03;;;-3.12;63.84
60479;BME280;46321;48.398;11.754;2023-02-28T00:39:51;97122.72;;;-3.08;63.64
60479;BME280;46321;48.398;11.754;2023-02-28T00:42:16;97120.88;;;-3.06;63.69
60479;BME280;46321;48.398;11.754;2023-02-28T00:44:41;97122.94;;;-3.13;63.81
60479;BME280;46321;48.398;11.754;2023-02-28T00:47:07;97113.13;;;-3.06;63.72
60479;BME280;46321;48.398;11.754;2023-02-28T00:49:32;97115.72;;;-3.06;63.70
60479;BME280;46321;48.398;11.754;2023-02-28T00:51:57;97113.22;;;-3.27;64.06
60479;BME280;46321;48.398;11.754;2023-02-28T00:54:23;97106.84;;;-3.19;63.92
60479;BME280;46321;48.398;11.754;2023-02-28T00:56:48;97117.66;;;-3.11;63.85
60479;BME280;46321;48.398;11.754;2023-02-28T00:59:15;97100.44;;;-3.30;64.04
60479;BME280;46321;48.398;11.754;2023-02-28T01:01:42;97101.97;;;-3.26;64.54
60479;BME280;46321;48.398;11.754;2023-02-28T01:04:08;97107.22;;;-3.27;64.21
60479;BME280;46321;48.398;11.754;2023-02-28T01:06:33;97100.03;;;-3.40;64.55
60479;BME280;46321;48.398;11.754;2023-02-28T01:08:59;97095.06;;;-3.45;64.85
60479;BME280;46321;48.398;11.754;2023-02-28T01:11:25;97109.50;;;-3.39;64.71
60479;BME280;46321;48.398;11.754;2023-02-28T01:13:50;97105.63;;;-3.30;64.33
60479;BME280;46321;48.398;11.754;2023-02-28T01:16:15;97099.03;;;-3.37;64.48
60479;BME280;46321;48.398;11.754;2023-02-28T01:18:41;97100.34;;;-3.28;64.33
60479;BME280;46321;48.398;11.754;2023-02-28T01:21:09;97099.69;;;-3.14;64.03
60479;BME280;46321;48.398;11.754;2023-02-28T01:23:34;97098.72;;;-3.12;64.13
60479;BME280;46321;48.398;11.754;2023-02-28T01:26:05;97098.31;;;-3.22;64.18
60479;BME280;46321;48.398;11.754;2023-02-28T01:28:31;97090.84;;;-3.28;64.71
60479;BME280;46321;48.398;11.754;2023-02-28T01:30:56;97094.97;;;-3.24;64.57
60479;BME280;46321;48.398;11.754;2023-02-28T01:33:22;97090.72;;;-3.44;65.15
60479;BME280;46321;48.398;11.754;2023-02-28T01:35:47;97090.94;;;-3.29;64.86
60479;BME280;46321;48.398;11.754;2023-02-28T01:38:13;97092.13;;;-3.37;65.09
60479;BME280;46321;48.398;11.754;2023-02-28T01:40:39;97102.59;;;-3.20;64.57
60479;BME280;46321;48.398;11.754;2023-02-28T01:43:16;97089.66;;;-3.20;64.45
60479;BME280;46321;48.398;11.754;2023-02-28T01:45:44;97088.28;;;-3.10;64.51
60479;BME280;46321;48.398;11.754;2023-02-28T01:48:09;97083.53;;;-3.19;64.89
60479;BME280;46321;48.398;11.754;2023-02-28T01:50:39;97081.41;;;-3.11;64.73
60479;BME280;46321;48.398;11.754;2023-02-28T01:53:08;97081.88;;;-3.03;64.36
60479;BME280;46321;48.398;11.754;2023-02-28T01:55:36;97076.84;;;-3.06;64.23
60479;BME280;46321;48.398;11.754;2023-02-28T01:58:04;97070.59;;;-3.19;64.52
60479;BME280;46321;48.398;11.754;2023-02-28T02:00:30;97080.66;;;-3.13;64.63
60479;BME280;46321;48.398;11.754;2023-02-28T02:02:59;97080.72;;;-3.33;65.30
60479;BME280;46321;48.398;11.754;2023-02-28T02:05:27;97069.06;;;-3.24;64.96
60479;BME280;46321;48.398;11.754;2023-02-28T02:07:58;97076.44;;;-3.16;64.67
60479;BME280;46321;48.398;11.754;2023-02-28T02:10:36;97077.19;;;-3.31;65.38
60479;BME280;46321;48.398;11.754;2023-02-28T02:21:40;97084.56;;;-3.41;65.77
60479;BME280;46321;48.398;11.754;2023-02-28T02:27:18;97073.25;;;-3.39;65.76
60479;BME280;46321;48.398;11.754;2023-02-28T02:32:44;97079.69;;;-3.48;66.18
60479;BME280;46321;48.398;11.754;2023-02-28T02:37:55;97073.16;;;-3.37;66.04
60479;BME280;46321;48.398;11.754;2023-02-28T02:40:32;97080.78;;;-3.34;65.95
60479;BME280;46321;48.398;11.754;2023-02-28T02:45:35;97076.81;;;-3.41;66.33
60479;BME280;46321;48.398;11.754;2023-02-28T02:48:06;97077.78;;;-3.44;66.56
60479;BME280;46321;48.398;11.754;2023-02-28T02:50:37;97084.72;;;-3.45;66.22
60479;BME280;46321;48.398;11.754;2023-02-28T02:53:05;97083.75;;;-3.61;66.65
60479;BME280;46321;48.398;11.754;2023-02-28T02:55:33;97079.34;;;-3.59;66.98
60479;BME280;46321;48.398;11.754;2023-02-28T02:58:02;97080.19;;;-3.59;67.05
60479;BME280;46321;48.398;11.754;2023-02-28T03:00:37;97072.22;;;-3.54;67.22
60479;BME280;46321;48.398;11.754;2023-02-28T03:03:05;97077.91;;;-3.47;67.15
60479;BME280;46321;48.398;11.754;2023-02-28T03:05:41;97085.97;;;-3.34;66.64
60479;BME280;46321;48.398;11.754;2023-02-28T03:08:07;97080.47;;;-3.46;66.93
60479;BME280;46321;48.398;11.754;2023-02-28T03:10:41;97085.50;;;-3.62;67.30
60479;BME280;46321;48.398;11.754;2023-02-28T03:27:07;97068.81;;;-3.37;67.23
60479;BME280;46321;48.398;11.754;2023-02-28T03:29:39;97078.75;;;-3.27;66.93
60479;BME280;46321;48.398;11.754;2023-02-28T03:32:24;97081.25;;;-3.26;66.98
60479;BME280;46321;48.398;11.754;2023-02-28T03:35:12;97077.78;;;-3.44;67.45
60479;BME280;46321;48.398;11.754;2023-02-28T03:37:41;97071.19;;;-3.32;66.93
60479;BME280;46321;48.398;11.754;2023-02-28T03:40:12;97082.78;;;-3.22;67.27
60479;BME280;46321;48.398;11.754;2023-02-28T03:42:42;97079.44;;;-3.24;67.30
60479;BME280;46321;48.398;11.754;2023-02-28T03:45:15;97081.25;;;-3.26;67.01
60479;BME280;46321;48.398;11.754;2023-02-28T03:47:46;97079.13;;;-3.17;66.86
60479;BME280;46321;48.398;11.754;2023-02-28T03:52:46;97076.53;;;-3.17;66.90
60479;BME280;46321;48.398;11.754;2023-02-28T03:55:14;97076.69;;;-3.20;66.96
60479;BME280;46321;48.398;11.754;2023-02-28T03:57:56;97075.69;;;-3.18;66.93
60479;BME280;46321;48.398;11.754;2023-02-28T04:00:27;97081.78;;;-3.19;67.27
60479;BME280;46321;48.398;11.754;2023-02-28T04:02:55;97075.84;;;-3.21;66.89
60479;BME280;46321;48.398;11.754;2023-02-28T04:05:21;97084.22;;;-3.16;67.00
60479;BME280;46321;48.398;11.754;2023-02-28T04:07:47;97077.91;;;-3.10;66.46
60479;BME280;46321;48.398;11.754;2023-02-28T04:10:13;97089.94;;;-3.09;66.92
60479;BME280;46321;48.398;11.754;2023-02-28T04:12:39;97088.91;;;-3.05;66.47
60479;BME280;46321;48.398;11.754;2023-02-28T04:15:05;97087.59;;;-3.14;66.98
60479;BME280;46321;48.398;11.754;2023-02-28T04:17:31;97087.59;;;-3.14;67.10
60479;BME280;46321;48.398;11.754;2023-02-28T04:19:56;97093.69;;;-3.15;67.29
60479;BME280;46321;48.398;11.754;2023-02-28T04:22:22;97096.28;;;-3.15;66.96
60479;BME280;46321;48.398;11.754;2023-02-28T04:24:47;97110.66;;;-3.09;66.96
60479;BME280;46321;48.398;11.754;2023-02-28T04:27:12;97107.47;;;-3.14;66.98
60479;BME280;46321;48.398;11.754;2023-02-28T04:29:38;97099.25;;;-3.05;67.01
60479;BME280;46321;48.398;11.754;2023-02-28T04:32:03;97102.63;;;-3.03;66.81
60479;BME280;46321;48.398;11.754;2023-02-28T04:34:30;97102.00;;;-3.08;66.56
60479;BME280;46321;48.398;11.754;2023-02-28T04:36:57;97101.38;;;-3.13;66.87
60479;BME280;46321;48.398;11.754;2023-02-28T04:39:23;97107.47;;;-3.14;66.63
60479;BME280;46321;48.398;11.754;2023-02-28T04:41:49;97105.34;;;-3.06;66.69
60479;BME280;46321;48.398;11.754;2023-02-28T04:44:14;97106.50;;;-3.31;67.13
60479;BME280;46321;48.398;11.754;2023-02-28T04:46:41;97113.56;;;-3.15;66.81
60479;BME280;46321;48.398;11.754;2023-02-28T04:49:06;97113.84;;;-3.22;67.34
60479;BME280;46321;48.398;11.754;2023-02-28T04:51:32;97116.38;;;-3.20;67.10
60479;BME280;46321;48.398;11.754;2023-02-28T04:53:58;97111.34;;;-3.23;67.32
60479;BME280;46321;48.398;11.754;2023-02-28T04:56:23;97109.97;;;-3.30;67.52
60479;BME280;46321;48.398;11.754;2023-02-28T04:58:49;97111.66;;;-3.29;67.41
60479;BME280;46321;48.398;11.754;2023-02-28T05:01:33;97116.22;;;-3.54;68.25
60479;BME280;46321;48.398;11.754;2023-02-28T05:04:00;97114.16;;;-3.28;67.54
60479;BME280;46321;48.398;11.754;2023-02-28T05:06:28;97119.34;;;-3.28;67.36
60479;BME280;46321;48.398;11.754;2023-02-28T05:08:54;97118.34;;;-3.25;67.38
60479;BME280;46321;48.398;11.754;2023-02-28T05:11:22;97115.97;;;-3.30;67.51
60479;BME280;46321;48.398;11.754;2023-02-28T05:13:49;97114.25;;;-3.29;67.49
60479;BME280;46321;48.398;11.754;2023-02-28T05:16:15;97129.19;;;-3.17;67.23
60479;BME280;46321;48.398;11.754;2023-02-28T05:18:41;97128.16;;;-3.32;67.44
60479;BME280;46321;48.398;11.754;2023-02-28T05:21:26;97123.13;;;-3.35;67.58
60479;BME280;46321;48.398;11.754;2023-02-28T05:23:52;97122.34;;;-3.37;67.62
60479;BME280;46321;48.398;11.754;2023-02-28T05:26:18;97125.38;;;-3.47;67.86
60479;BME280;46321;48.398;11.754;2023-02-28T05:28:44;97125.88;;;-3.38;67.92
60479;BME280;46321;48.398;11.754;2023-02-28T05:31:13;97121.81;;;-3.44;67.77
60479;BME280;46321;48.398;11.754;2023-02-28T05:33:38;97120.69;;;-3.38;67.44
60479;BME280;46321;48.398;11.754;2023-02-28T05:36:05;97125.06;;;-3.40;67.56
60479;BME280;46321;48.398;11.754;2023-02-28T05:38:30;97119.78;;;-3.57;67.81
60479;BME280;46321;48.398;11.754;2023-02-28T05:40:56;97126.22;;;-3.46;67.60
60479;BME280;46321;48.398;11.754;2023-02-28T05:43:21;97133.06;;;-3.64;68.24
60479;BME280;46321;48.398;11.754;2023-02-28T05:45:47;97129.31;;;-3.57;67.71
60479;BME280;46321;48.398;11.754;2023-02-28T05:48:12;97136.31;;;-3.59;67.85
60479;BME280;46321;48.398;11.754;2023-02-28T05:50:37;97143.91;;;-3.75;68.08
60479;BME280;46321;48.398;11.754;2023-02-28T05:53:03;97133.56;;;-3.75;68.48
60479;BME280;46321;48.398;11.754;2023-02-28T05:55:28;97134.97;;;-3.68;68.05
60479;BME280;46321;48.398;11.754;2023-02-28T05:57:53;97142.59;;;-3.46;67.47
60479;BME280;46321;48.398;11.754;2023-02-28T06:00:19;97140.50;;;-3.57;67.78
60479;BME280;46321;48.398;11.754;2023-02-28T06:02:44;97137.84;;;-3.55;67.87
60479;BME280;46321;48.398;11.754;2023-02-28T06:05:14;97139.44;;;-3.52;67.62
60479;BME280;46321;48.398;11.754;2023-02-28T06:07:40;97140.78;;;-3.43;67.29
60479;BME280;46321;48.398;11.754;2023-02-28T06:10:05;97140.91;;;-3.66;67.84
60479;BME280;46321;48.398;11.754;2023-02-28T06:12:31;97143.00;;;-3.55;67.85
60479;BME280;46321;48.398;11.754;2023-02-28T06:14:56;97136.91;;;-3.73;67.97
60479;BME280;46321;48.398;11.754;2023-02-28T06:17:21;97132.22;;;-3.65;67.73
60479;BME280;46321;48.398;11.754;2023-02-28T06:19:47;97143.28;;;-3.61;67.63
60479;BME280;46321;48.398;11.754;2023-02-28T06:22:13;97139.59;;;-3.75;68.07
60479;BME280;46321;48.398;11.754;2023-02-28T06:24:38;97143.22;;;-3.60;67.60
60479;BME280;46321;48.398;11.754;2023-02-28T06:27:03;97146.16;;;-3.48;67.35
60479;BME280;46321;48.398;11.754;2023-02-28T06:29:31;97151.53;;;-3.53;66.93
60479;BME280;46321;48.398;11.754;2023-02-28T06:31:56;97157.97;;;-3.42;66.96
60479;BME280;46321;48.398;11.754;2023-02-28T06:34:21;97155.81;;;-3.52;66.83
60479;BME280;46321;48.398;11.754;2023-02-28T06:36:50;97148.53;;;-3.43;66.64
60479;BME280;46321;48.398;11.754;2023-02-28T06:39:16;97150.00;;;-3.38;66.50
60479;BME280;46321;48.398;11.754;2023-02-28T06:41:41;97156.81;;;-3.17;66.06
60479;BME280;46321;48.398;11.754;2023-02-28T06:44:17;97162.22;;;-3.03;65.50
60479;BME280;46321;48.398;11.754;2023-02-28T06:46:44;97158.16;;;-2.91;65.38
60479;BME280;46321;48.398;11.754;2023-02-28T06:49:10;97167.09;;;-2.79;64.64
60479;BME280;46321;48.398;11.754;2023-02-28T06:51:38;97159.97;;;-2.56;64.29
60479;BME280;46321;48.398;11.754;2023-02-28T06:54:04;97167.72;;;-2.38;63.62
60479;BME280;46321;48.398;11.754;2023-02-28T06:56:30;97161.47;;;-2.34;63.17
60479;BME280;46321;48.398;11.754;2023-02-28T06:58:55;97171.50;;;-2.10;62.97
60479;BME280;46321;48.398;11.754;2023-02-28T07:01:21;97160.63;;;-1.82;61.97
60479;BME280;46321;48.398;11.754;2023-02-28T07:03:48;97166.16;;;-1.56;61.54
60479;BME280;46321;48.398;11.754;2023-02-28T07:06:23;97164.25;;;-1.36;60.89
60479;BME280;46321;48.398;11.754;2023-02-28T07:08:50;97157.47;;;-1.23;60.47
60479;BME280;46321;48.398;11.754;2023-02-28T07:11:16;97162.84;;;-1.10;59.98
60479;BME280;46321;48.398;11.754;2023-02-28T07:13:41;97166.59;;;-0.99;59.55
60479;BME280;46321;48.398;11.754;2023-02-28T07:16:09;97165.72;;;-0.53;59.20
60479;BME280;46321;48.398;11.754;2023-02-28T07:18:35;97171.06;;;-0.40;57.81
60479;BME280;46321;48.398;11.754;2023-02-28T07:21:06;97164.19;;;-0.41;57.39
60479;BME280;46321;48.398;11.754;2023-02-28T07:23:32;97163.94;;;-0.21;56.89
60479;BME280;46321;48.398;11.754;2023-02-28T07:25:57;97168.50;;;-0.10;56.34
60479;BME280;46321;48.398;11.754;2023-02-28T07:28:23;97165.25;;;0.01;55.82
60479;BME280;46321;48.398;11.754;2023-02-28T07:30:48;97167.97;;;0.28;55.07
60479;BME280;46321;48.398;11.754;2023-02-28T07:33:13;97160.06;;;0.44;54.53
60479;BME280;46321;48.398;11.754;2023-02-28T07:35:39;97167.50;;;0.36;54.97
60479;BME280;46321;48.398;11.754;2023-02-28T07:38:04;97174.22;;;0.40;53.95
60479;BME280;46321;48.398;11.754;2023-02-28T07:40:30;97168.91;;;0.42;54.25
60479;BME280;46321;48.398;11.754;2023-02-28T07:42:55;97167.50;;;1.21;53.49
60479;BME280;46321;48.398;11.754;2023-02-28T07:45:21;97166.00;;;1.57;52.24
60479;BME280;46321;48.398;11.754;2023-02-28T07:47:46;97175.59;;;1.57;51.17
60479;BME280;46321;48.398;11.754;2023-02-28T07:50:14;97179.72;;;1.74;50.58
60479;BME280;46321;48.398;11.754;2023-02-28T07:52:40;97178.50;;;2.19;50.36
60479;BME280;46321;48.398;11.754;2023-02-28T07:55:07;97177.09;;;2.53;48.30
60479;BME280;46321;48.398;11.754;2023-02-28T07:57:33;97172.66;;;3.04;48.08
60479;BME280;46321;48.398;11.754;2023-02-28T07:59:58;97172.16;;;3.23;47.42
60479;BME280;46321;48.398;11.754;2023-02-28T08:02:23;97174.28;;;3.42;47.09
60479;BME280;46321;48.398;11.754;2023-02-28T08:04:49;97171.28;;;3.36;46.48
60479;BME280;46321;48.398;11.754;2023-02-28T08:07:15;97182.22;;;2.92;47.13
60479;BME280;46321;48.398;11.754;2023-02-28T08:09:41;97178.00;;;2.78;47.56
60479;BME280;46321;48.398;11.754;2023-02-28T08:12:07;97174.28;;;3.42;46.98
60479;BME280;46321;48.398;11.754;2023-02-28T08:14:32;97163.50;;;4.29;45.54
60479;BME280;46321;48.398;11.754;2023-02-28T08:16:57;97172.28;;;4.17;44.21
60479;BME280;46321;48.398;11.754;2023-02-28T08:19:23;97168.63;;;4.42;43.91
60479;BME280;46321;48.398;11.754;2023-02-28T08:21:48;97164.44;;;4.40;42.94
60479;BME280;46321;48.398;11.754;2023-02-28T08:24:13;97174.16;;;3.80;43.61
60479;BME280;46321;48.398;11.754;2023-02-28T08:26:38;97181.06;;;3.93;43.33
60479;BME280;46321;48.398;11.754;2023-02-28T08:29:04;97194.88;;;3.95;42.96
60479;BME280;46321;48.398;11.754;2023-02-28T08:31:29;97184.38;;;3.83;44.05
60479;BME280;46321;48.398;11.754;2023-02-28T08:33:54;97179.34;;;4.16;42.94
60479;BME280;46321;48.398;11.754;2023-02-28T08:36:23;97203.84;;;4.15;42.29
60479;BME280;46321;48.398;11.754;2023-02-28T08:38:48;97181.91;;;3.93;42.12
60479;BME280;46321;48.398;11.754;2023-02-28T08:41:13;97182.06;;;4.15;42.37
60479;BME280;46321;48.398;11.754;2023-02-28T08:43:39;97186.59;;;4.24;42.47
60479;BME280;46321;48.398;11.754;2023-02-28T08:46:06;97188.03;;;4.74;42.30
60479;BME280;46321;48.398;11.754;2023-02-28T08:48:33;97184.34;;;4.65;41.59
60479;BME280;46321;48.398;11.754;2023-02-28T08:51:04;97196.25;;;4.92;42.05
60479;BME280;46321;48.398;11.754;2023-02-28T08:53:30;97197.47;;;5.21;41.40
60479;BME280;46321;48.398;11.754;2023-02-28T08:56:00;97197.69;;;4.74;41.22
60479;BME280;46321;48.398;11.754;2023-02-28T08:58:26;97188.59;;;5.34;40.74
60479;BME280;46321;48.398;11.754;2023-02-28T09:00:52;97187.28;;;6.15;39.28
60479;BME280;46321;48.398;11.754;2023-02-28T09:03:17;97184.28;;;7.03;38.71
60479;BME280;46321;48.398;11.754;2023-02-28T09:06:00;97192.31;;;7.11;37.35
60479;BME280;46321;48.398;11.754;2023-02-28T09:08:27;97189.75;;;6.80;37.41
60479;BME280;46321;48.398;11.754;2023-02-28T09:10:52;97180.88;;;6.71;37.73
60479;BME280;46321;48.398;11.754;2023-02-28T09:13:19;97185.16;;;7.23;37.08
60479;BME280;46321;48.398;11.754;2023-02-28T09:15:45;97187.09;;;7.21;36.34
60479;BME280;46321;48.398;11.754;2023-02-28T09:18:10;97194.88;;;7.52;36.84
60479;BME280;46321;48.398;11.754;2023-02-28T09:20:40;97191.22;;;8.61;34.76
60479;BME280;46321;48.398;11.754;2023-02-28T09:23:07;97192.84;;;8.72;34.85
60479;BME280;46321;48.398;11.754;2023-02-28T09:25:32;97198.69;;;8.94;33.43
60479;BME280;46321;48.398;11.754;2023-02-28T09:27:58;97199.16;;;9.08;33.24
60479;BME280;46321;48.398;11.754;2023-02-28T09:30:23;97195.50;;;10.45;32.26
60479;BME280;46321;48.398;11.754;2023-02-28T09:32:48;97209.53;;;8.63;33.42
60479;BME280;46321;48.398;11.754;2023-02-28T09:35:21;97195.50;;;8.14;34.47
60479;BME280;46321;48.398;11.754;2023-02-28T09:37:48;97203.69;;;8.11;35.07
60479;BME280;46321;48.398;11.754;2023-02-28T09:40:14;97208.66;;;8.24;35.01
60479;BME280;46321;48.398;11.754;2023-02-28T09:42:45;97206.00;;;8.82;34.27
60479;BME280;46321;48.398;11.754;2023-02-28T09:45:33;97209.94;;;9.79;32.65
60479;BME280;46321;48.398;11.754;2023-02-28T09:48:03;97218.78;;;10.15;31.51
60479;BME280;46321;48.398;11.754;2023-02-28T09:50:34;97213.13;;;9.83;32.17
60479;BME280;46321;48.398;11.754;2023-02-28T09:53:06;97204.09;;;10.12;31.90
60479;BME280;46321;48.398;11.754;2023-02-28T09:55:45;97212.00;;;11.01;30.84
60479;BME280;46321;48.398;11.754;2023-02-28T09:58:20;97217.44;;;10.37;30.92
60479;BME280;46321;48.398;11.754;2023-02-28T10:00:56;97217.88;;;10.24;31.26
60479;BME280;46321;48.398;11.754;2023-02-28T10:03:32;97211.97;;;11.52;30.68
60479;BME280;46321;48.398;11.754;2023-02-28T10:08:33;97216.81;;;12.16;29.38
60479;BME280;46321;48.398;11.754;2023-02-28T10:11:02;97220.59;;;11.96;29.52
60479;BME280;46321;48.398;11.754;2023-02-28T10:16:01;97201.25;;;14.12;26.36
60479;BME280;46321;48.398;11.754;2023-02-28T10:18:52;97220.81;;;14.19;25.93
60479;BME280;46321;48.398;11.754;2023-02-28T10:24:03;97222.09;;;14.08;26.03
60479;BME280;46321;48.398;11.754;2023-02-28T10:26:31;97217.84;;;14.68;25.06
60479;BME280;46321;48.398;11.754;2023-02-28T10:28:56;97214.03;;;13.93;26.88
60479;BME280;46321;48.398;11.754;2023-02-28T10:31:22;97222.03;;;12.66;27.10
60479;BME280;46321;48.398;11.754;2023-02-28T10:33:48;97230.22;;;12.31;27.41
60479;BME280;46321;48.398;11.754;2023-02-28T10:36:19;97223.94;;;11.98;27.66
60479;BME280;46321;48.398;11.754;2023-02-28T10:38:46;97223.59;;;11.93;28.37
60479;BME280;46321;48.398;11.754;2023-02-28T10:41:15;97215.50;;;13.57;26.66
60479;BME280;46321;48.398;11.754;2023-02-28T10:43:42;97214.44;;;12.46;27.29
60479;BME280;46321;48.398;11.754;2023-02-28T10:46:16;97219.47;;;11.82;27.95
60479;BME280;46321;48.398;11.754;2023-02-28T10:49:01;97222.88;;;11.41;29.69
60479;BME280;46321;48.398;11.754;2023-02-28T10:51:35;97226.09;;;12.20;27.81
60479;BME280;46321;48.398;11.754;2023-02-28T10:54:02;97242.66;;;12.47;28.19
60479;BME280;46321;48.398;11.754;2023-02-28T10:56:27;97227.06;;;12.35;27.60
60479;BME280;46321;48.398;11.754;2023-02-28T11:01:35;97213.34;;;12.80;27.28
60479;BME280;46321;48.398;11.754;2023-02-28T11:04:00;97216.06;;;13.91;26.32
60479;BME280;46321;48.398;11.754;2023-02-28T11:06:29;97228.47;;;12.80;26.93
60479;BME280;46321;48.398;11.754;2023-02-28T11:09:00;97237.03;;;11.91;28.27
60479;BME280;46321;48.398;11.754;2023-02-28T11:11:28;97223.94;;;12.15;28.41
60479;BME280;46321;48.398;11.754;2023-02-28T11:13:57;97236.34;;;12.48;28.10
60479;BME280;46321;48.398;11.754;2023-02-28T11:16:35;97224.75;;;13.30;27.37
60479;BME280;46321;48.398;11.754;2023-02-28T11:19:02;97223.59;;;11.93;28.19
60479;BME280;46321;48.398;11.754;2023-02-28T11:21:32;97229.88;;;10.98;29.55
60479;BME280;46321;48.398;11.754;2023-02-28T11:24:04;97229.06;;;11.83;29.25
60479;BME280;46321;48.398;11.754;2023-02-28T11:26:46;97220.31;;;12.16;28.37
60479;BME280;46321;48.398;11.754;2023-02-28T11:29:21;97228.69;;;11.44;29.25
60479;BME280;46321;48.398;11.754;2023-02-28T11:32:15;97232.44;;;10.28;30.40
60479;BME280;46321;48.398;11.754;2023-02-28T11:34:41;97225.09;;;10.67;30.84
60479;BME280;46321;48.398;11.754;2023-02-28T11:37:14;97230.44;;;10.04;31.16
60479;BME280;46321;48.398;11.754;2023-02-28T11:39:43;97234.00;;;8.55;33.14
60479;BME280;46321;48.398;11.754;2023-02-28T11:42:14;97227.31;;;9.45;32.78
60479;BME280;46321;48.398;11.754;2023-02-28T11:50:26;97221.44;;;8.29;34.09
60479;BME280;46321;48.398;11.754;2023-02-28T11:53:01;97214.31;;;8.39;34.51
60479;BME280;46321;48.398;11.754;2023-02-28T11:55:36;97209.81;;;7.92;35.29
60479;BME280;46321;48.398;11.754;2023-02-28T12:03:27;97207.56;;;7.07;37.22
60479;BME280;46321;48.398;11.754;2023-02-28T12:06:01;97197.28;;;7.04;38.34
60479;BME280;46321;48.398;11.754;2023-02-28T12:08:51;97205.22;;;7.14;37.83
60479;BME280;46321;48.398;11.754;2023-02-28T12:11:44;97198.59;;;7.70;36.92
60479;BME280;46321;48.398;11.754;2023-02-28T12:14:25;97212.88;;;7.67;36.50
60479;BME280;46321;48.398;11.754;2023-02-28T12:17:19;97206.94;;;6.74;37.65
60479;BME280;46321;48.398;11.754;2023-02-28T12:20:13;97209.41;;;6.13;38.75
60479;BME280;46321;48.398;11.754;2023-02-28T12:25:48;97208.91;;;5.86;39.86
60479;BME280;46321;48.398;11.754;2023-02-28T12:28:21;97204.88;;;6.46;39.73
60479;BME280;46321;48.398;11.754;2023-02-28T12:30:56;97202.69;;;6.30;39.28
60479;BME280;46321;48.398;11.754;2023-02-28T12:33:27;97192.63;;;6.35;39.45
60479;BME280;46321;48.398;11.754;2023-02-28T12:35:56;97197.28;;;6.22;39.00
60479;BME280;46321;48.398;11.754;2023-02-28T12:38:25;97191.16;;;6.21;40.34
60479;BME280;46321;48.398;11.754;2023-02-28T12:43:48;97205.03;;;5.47;40.82
60479;BME280;46321;48.398;11.754;2023-02-28T12:46:24;97196.16;;;6.03;40.11
60479;BME280;46321;48.398;11.754;2023-02-28T12:48:56;97184.75;;;5.71;40.62
60479;BME280;46321;48.398;11.754;2023-02-28T12:51:24;97185.22;;;5.98;40.59
60479;BME280;46321;48.398;11.754;2023-02-28T13:02:18;97188.94;;;5.41;41.45
60479;BME280;46321;48.398;11.754;2023-02-28T13:07:33;97180.41;;;5.81;40.83
60479;BME280;46321;48.398;11.754;2023-02-28T13:10:04;97178.41;;;5.73;41.15
60479;BME280;46321;48.398;11.754;2023-02-28T13:12:33;97176.38;;;5.77;41.79
60479;BME280;46321;48.398;11.754;2023-02-28T13:15:22;97179.38;;;5.72;41.05
60479;BME280;46321;48.398;11.754;2023-02-28T13:17:58;97181.03;;;5.73;40.69
60479;BME280;46321;48.398;11.754;2023-02-28T13:20:31;97174.19;;;6.04;40.32
60479;BME280;46321;48.398;11.754;2023-02-28T13:22:58;97173.97;;;6.07;40.51
60479;BME280;46321;48.398;11.754;2023-02-28T13:28:11;97176.88;;;5.92;41.28
60479;BME280;46321;48.398;11.754;2023-02-28T13:38:43;97173.16;;;6.16;41.67
60479;BME280;46321;48.398;11.754;2023-02-28T13:44:07;97169.03;;;5.81;42.74
60479;BME280;46321;48.398;11.754;2023-02-28T13:46:35;97174.34;;;5.69;41.96
60479;BME280;46321;48.398;11.754;2023-02-28T13:57:35;97170.66;;;6.15;41.97
60479;BME280;46321;48.398;11.754;2023-02-28T14:06:33;97178.41;;;5.73;42.36
60479;BME280;46321;48.398;11.754;2023-02-28T14:09:21;97172.28;;;5.52;41.95
60479;BME280;46321;48.398;11.754;2023-02-28T14:11:49;97174.41;;;5.58;42.26
60479;BME280;46321;48.398;11.754;2023-02-28T14:17:12;97181.94;;;5.30;43.81
60479;BME280;46321;48.398;11.754;2023-02-28T14:19:39;97175.47;;;5.34;42.98
60479;BME280;46321;48.398;11.754;2023-02-28T14:22:22;97170.16;;;5.24;42.89
60479;BME280;46321;48.398;11.754;2023-02-28T14:25:22;97172.19;;;5.20;43.39
60479;BME280;46321;48.398;11.754;2023-02-28T14:30:51;97172.00;;;5.33;42.74
60479;BME280;46321;48.398;11.754;2023-02-28T14:33:38;97182.91;;;4.61;43.93
60479;BME280;46321;48.398;11.754;2023-02-28T14:36:26;97172.31;;;4.63;44.13
60479;BME280;46321;48.398;11.754;2023-02-28T14:38:55;97184.56;;;4.62;44.72
60479;BME280;46321;48.398;11.754;2023-02-28T14:41:26;97177.41;;;4.64;44.73
60479;BME280;46321;48.398;11.754;2023-02-28T14:43:57;97173.13;;;4.63;44.92
60479;BME280;46321;48.398;11.754;2023-02-28T14:46:38;97172.44;;;4.50;45.50
60479;BME280;46321;48.398;11.754;2023-02-28T14:49:05;97177.91;;;4.58;44.94
60479;BME280;46321;48.398;11.754;2023-02-28T14:51:32;97175.50;;;4.09;45.21